Time;durP1;ratioP1;P1;durP2;ratioP2;P2;SDS_P1;SDS_P2;PMS_P1;PMS_P2;Temp;Humidity;BMP_temperature;BMP_pressure;BME280_temperature;BME280_humidity;BME280_pressure;Samples;Min_cycle;Max_cycle;Signal;HPM_P1;HPM_P2
2024/01/12 00:00:53;;;;;;;45.40;15.10;;;;;;;;;;5028059;28;20029;-91
2024/01/12 00:03:19;;;;;;;39.30;15.20;;;;;;;;;;5025148;28;20021;-90
2024/01/12 00:05:45;;;;;;;38.90;15.10;;;;;;;;;;5025351;28;20030;-91
2024/01/12 00:08:10;;;;;;;45.83;14.73;;;;;;;;;;5024447;28;20358;-91
2024/01/12 00:10:35;;;;;;;41.43;15.67;;;;;;;;;;5026062;28;20097;-90
2024/01/12 00:13:00;;;;;;;36.87;15.40;;;;;;;;;;5026179;28;20022;-91
2024/01/12 00:15:26;;;;;;;35.37;13.93;;;;;;;;;;5025746;28;20020;-90
2024/01/12 00:17:51;;;;;;;38.40;14.30;;;;;;;;;;5026248;28;20032;-90
2024/01/12 00:20:16;;;;;;;46.00;14.60;;;;;;;;;;5025681;28;20040;-91
2024/01/12 00:22:41;;;;;;;39.03;14.77;;;;;;;;;;5026298;28;20517;-91
2024/01/12 00:25:07;;;;;;;40.83;15.30;;;;;;;;;;5026932;28;20292;-91
2024/01/12 00:27:32;;;;;;;36.30;14.57;;;;;;;;;;5026714;28;20022;-91
2024/01/12 00:29:57;;;;;;;39.10;15.20;;;;;;;;;;5026040;28;20105;-91
2024/01/12 00:32:22;;;;;;;41.20;14.60;;;;;;;;;;5025353;28;20033;-91
2024/01/12 00:34:49;;;;;;;34.47;12.90;;;;;;;;;;5026761;28;20029;-91
2024/01/12 00:37:14;;;;;;;35.60;14.40;;;;;;;;;;5027168;28;20022;-91
2024/01/12 00:39:39;;;;;;;39.13;14.53;;;;;;;;;;5026563;28;20022;-91
2024/01/12 00:42:05;;;;;;;42.70;16.13;;;;;;;;;;5025513;28;20065;-91
2024/01/12 00:44:30;;;;;;;46.83;15.57;;;;;;;;;;5023691;28;20109;-91
2024/01/12 00:46:56;;;;;;;43.17;15.50;;;;;;;;;;5026741;28;20120;-91
2024/01/12 00:49:22;;;;;;;37.15;13.90;;;;;;;;;;5025524;28;20424;-91
2024/01/12 00:51:48;;;;;;;34.83;13.93;;;;;;;;;;5026044;28;20025;-91
2024/01/12 00:54:13;;;;;;;34.80;14.00;;;;;;;;;;5024753;28;20076;-91
2024/01/12 00:56:38;;;;;;;38.37;14.33;;;;;;;;;;5024378;28;20257;-90
2024/01/12 00:59:04;;;;;;;38.93;13.80;;;;;;;;;;5023494;28;20363;-92
2024/01/12 01:01:29;;;;;;;33.87;14.03;;;;;;;;;;5022689;28;20018;-91
2024/01/12 01:03:55;;;;;;;40.00;14.87;;;;;;;;;;5023611;28;20749;-91
2024/01/12 01:06:20;;;;;;;34.10;13.47;;;;;;;;;;5023599;28;20056;-91
2024/01/12 01:08:46;;;;;;;35.00;13.77;;;;;;;;;;5025761;28;20026;-91
2024/01/12 01:11:11;;;;;;;36.35;14.90;;;;;;;;;;5023589;28;20025;-91
2024/01/12 01:13:37;;;;;;;39.63;14.23;;;;;;;;;;5025208;28;20377;-91
2024/01/12 01:16:03;;;;;;;36.43;13.87;;;;;;;;;;5024780;28;20013;-91
2024/01/12 01:18:30;;;;;;;37.03;14.27;;;;;;;;;;5022932;28;20037;-91
2024/01/12 01:20:55;;;;;;;40.97;15.13;;;;;;;;;;5022212;28;20018;-90
2024/01/12 01:23:20;;;;;;;41.57;14.73;;;;;;;;;;5025808;28;20248;-91
2024/01/12 01:25:46;;;;;;;34.73;13.07;;;;;;;;;;5025437;28;20029;-91
2024/01/12 01:28:12;;;;;;;36.57;14.20;;;;;;;;;;5026057;28;20109;-91
2024/01/12 01:30:37;;;;;;;37.00;14.63;;;;;;;;;;5024491;28;20018;-91
2024/01/12 01:33:02;;;;;;;40.83;14.40;;;;;;;;;;5026950;28;20104;-91
2024/01/12 01:35:28;;;;;;;40.63;14.27;;;;;;;;;;5025665;28;20113;-91
2024/01/12 01:37:53;;;;;;;39.93;14.47;;;;;;;;;;5026149;28;20072;-90
2024/01/12 01:40:18;;;;;;;35.33;13.90;;;;;;;;;;5025619;28;20078;-91
2024/01/12 01:42:46;;;;;;;39.50;14.47;;;;;;;;;;5025158;28;20041;-91
2024/01/12 01:45:11;;;;;;;38.65;14.82;;;;;;;;;;5025558;28;20022;-91
2024/01/12 01:47:37;;;;;;;39.77;14.87;;;;;;;;;;5024969;28;20065;-91
2024/01/12 01:50:03;;;;;;;37.65;14.52;;;;;;;;;;5021888;28;20081;-91
2024/01/12 01:52:28;;;;;;;34.60;14.17;;;;;;;;;;5022028;28;20068;-91
2024/01/12 01:54:55;;;;;;;35.30;14.60;;;;;;;;;;5022325;28;20014;-91
2024/01/12 01:57:20;;;;;;;37.13;14.70;;;;;;;;;;5030603;28;19998;-91
2024/01/12 01:59:46;;;;;;;41.13;14.93;;;;;;;;;;5026933;28;20028;-91
2024/01/12 02:02:11;;;;;;;38.35;14.95;;;;;;;;;;5022770;28;20076;-91
2024/01/12 02:04:37;;;;;;;37.53;14.57;;;;;;;;;;5023624;28;20113;-91
2024/01/12 02:07:03;;;;;;;38.60;14.73;;;;;;;;;;5022061;28;20033;-91
2024/01/12 02:09:31;;;;;;;39.95;14.50;;;;;;;;;;5022206;28;20010;-90
2024/01/12 02:11:56;;;;;;;41.45;14.25;;;;;;;;;;5024253;28;20094;-91
2024/01/12 02:14:22;;;;;;;39.13;13.93;;;;;;;;;;5024639;28;20017;-91
2024/01/12 02:16:47;;;;;;;35.57;14.27;;;;;;;;;;5026099;28;20018;-91
2024/01/12 02:19:12;;;;;;;38.17;16.13;;;;;;;;;;5025579;28;20110;-91
2024/01/12 02:21:37;;;;;;;37.93;14.27;;;;;;;;;;5023242;28;20093;-92
2024/01/12 02:24:03;;;;;;;39.10;15.27;;;;;;;;;;5025130;28;20045;-91
2024/01/12 02:26:28;;;;;;;41.20;14.20;;;;;;;;;;5024330;28;20045;-91
2024/01/12 02:28:53;;;;;;;39.17;14.43;;;;;;;;;;5024292;28;20587;-91
2024/01/12 02:31:18;;;;;;;38.75;14.43;;;;;;;;;;5023749;28;20029;-91
2024/01/12 02:33:47;;;;;;;38.60;14.83;;;;;;;;;;5024409;28;20014;-91
2024/01/12 02:36:12;;;;;;;37.63;14.43;;;;;;;;;;5023775;28;20049;-92
2024/01/12 02:38:37;;;;;;;34.90;13.87;;;;;;;;;;5025023;28;20265;-91
2024/01/12 02:41:02;;;;;;;42.13;14.57;;;;;;;;;;5024592;28;20022;-90
2024/01/12 02:43:27;;;;;;;36.20;14.43;;;;;;;;;;5028147;28;20017;-91
2024/01/12 02:45:53;;;;;;;46.10;15.37;;;;;;;;;;5027910;28;20038;-91
2024/01/12 02:48:18;;;;;;;40.37;14.20;;;;;;;;;;5027707;28;20018;-91
2024/01/12 02:50:43;;;;;;;41.83;15.90;;;;;;;;;;5025343;28;20049;-91
2024/01/12 02:53:08;;;;;;;42.47;15.27;;;;;;;;;;5027789;28;20366;-90
2024/01/12 02:55:33;;;;;;;40.70;15.43;;;;;;;;;;5028566;28;20021;-91
2024/01/12 02:57:59;;;;;;;38.33;14.90;;;;;;;;;;5028589;28;20037;-92
2024/01/12 03:00:24;;;;;;;42.67;15.50;;;;;;;;;;5029991;28;20026;-91
2024/01/12 03:02:49;;;;;;;42.55;15.45;;;;;;;;;;5031698;28;20020;-91
2024/01/12 03:05:15;;;;;;;41.40;14.47;;;;;;;;;;5033128;28;20103;-91
2024/01/12 03:07:40;;;;;;;37.30;13.60;;;;;;;;;;5028605;28;20026;-91
2024/01/12 03:10:05;;;;;;;39.27;14.50;;;;;;;;;;5026965;28;20010;-91
2024/01/12 03:12:31;;;;;;;41.23;14.87;;;;;;;;;;5027725;28;20041;-91
2024/01/12 03:14:56;;;;;;;42.30;15.10;;;;;;;;;;5028910;28;20050;-91
2024/01/12 03:17:21;;;;;;;32.33;13.67;;;;;;;;;;5030263;28;20040;-91
2024/01/12 03:19:46;;;;;;;40.30;15.37;;;;;;;;;;5028845;28;20261;-91
2024/01/12 03:22:12;;;;;;;42.73;15.37;;;;;;;;;;5029784;28;20014;-91
2024/01/12 03:24:37;;;;;;;35.80;14.03;;;;;;;;;;5029843;28;20565;-91
2024/01/12 03:27:03;;;;;;;39.27;15.37;;;;;;;;;;5029401;28;20030;-91
2024/01/12 03:29:28;;;;;;;43.15;15.35;;;;;;;;;;5027515;28;20032;-90
2024/01/12 03:31:53;;;;;;;41.23;15.13;;;;;;;;;;5026427;28;20025;-90
2024/01/12 03:34:18;;;;;;;38.77;14.50;;;;;;;;;;5028183;28;20018;-91
2024/01/12 03:36:44;;;;;;;35.93;13.90;;;;;;;;;;5028027;28;20014;-91
2024/01/12 03:39:10;;;;;;;38.07;14.53;;;;;;;;;;5029087;28;20022;-91
2024/01/12 03:41:35;;;;;;;38.22;14.68;;;;;;;;;;5029336;28;20029;-91
2024/01/12 03:44:00;;;;;;;37.40;14.47;;;;;;;;;;5029723;28;20026;-91
2024/01/12 03:46:25;;;;;;;38.53;14.13;;;;;;;;;;5029799;28;20034;-91
2024/01/12 03:48:51;;;;;;;36.57;14.30;;;;;;;;;;5029194;28;20029;-91
2024/01/12 03:51:16;;;;;;;38.03;14.57;;;;;;;;;;5029316;28;20014;-91
2024/01/12 03:53:42;;;;;;;33.13;13.47;;;;;;;;;;5027128;28;20025;-91
2024/01/12 03:56:07;;;;;;;41.05;13.85;;;;;;;;;;5033298;28;20022;-90
2024/01/12 03:58:32;;;;;;;42.83;14.93;;;;;;;;;;5031216;28;20014;-91
2024/01/12 04:00:57;;;;;;;39.87;14.17;;;;;;;;;;5027341;28;20042;-90
2024/01/12 04:03:22;;;;;;;35.30;13.90;;;;;;;;;;5028254;28;20041;-91
2024/01/12 04:05:48;;;;;;;37.63;14.50;;;;;;;;;;5027609;28;20041;-91
2024/01/12 04:08:13;;;;;;;38.90;14.93;;;;;;;;;;5026216;28;20018;-92
2024/01/12 04:10:39;;;;;;;39.00;14.83;;;;;;;;;;5025960;28;20103;-91
2024/01/12 04:13:05;;;;;;;36.17;13.90;;;;;;;;;;5027543;28;20028;-91
2024/01/12 04:15:30;;;;;;;37.53;14.20;;;;;;;;;;5026014;28;20022;-91
2024/01/12 04:17:55;;;;;;;35.53;14.10;;;;;;;;;;5027218;28;20033;-91
2024/01/12 04:20:20;;;;;;;37.33;14.07;;;;;;;;;;5026798;28;20037;-91
2024/01/12 04:22:46;;;;;;;39.93;14.77;;;;;;;;;;5026015;28;20022;-92
2024/01/12 04:25:11;;;;;;;39.90;14.17;;;;;;;;;;5024482;28;20033;-91
2024/01/12 04:27:36;;;;;;;42.80;15.07;;;;;;;;;;5027648;28;20022;-91
2024/01/12 04:30:01;;;;;;;44.70;15.87;;;;;;;;;;5012133;28;20026;-91
2024/01/12 04:32:27;;;;;;;40.87;15.43;;;;;;;;;;5026562;28;20048;-91
2024/01/12 04:34:52;;;;;;;38.20;14.63;;;;;;;;;;5028133;28;20500;-91
2024/01/12 04:37:17;;;;;;;38.37;15.77;;;;;;;;;;5025576;28;20725;-90
2024/01/12 04:39:42;;;;;;;45.73;15.90;;;;;;;;;;5023396;28;20033;-91
2024/01/12 04:42:09;;;;;;;44.33;16.73;;;;;;;;;;5024572;28;20049;-91
2024/01/12 04:44:34;;;;;;;45.80;15.95;;;;;;;;;;5024614;28;20018;-90
2024/01/12 04:46:59;;;;;;;45.97;16.53;;;;;;;;;;5023324;28;20038;-91
2024/01/12 04:49:24;;;;;;;52.70;16.10;;;;;;;;;;5025250;28;20022;-91
2024/01/12 04:51:50;;;;;;;43.13;16.47;;;;;;;;;;5024308;28;20028;-90
2024/01/12 04:54:17;;;;;;;43.97;15.73;;;;;;;;;;5022312;28;20022;-91
2024/01/12 04:56:42;;;;;;;41.47;14.65;;;;;;;;;;5025842;28;20022;-91
2024/01/12 04:59:07;;;;;;;43.43;16.17;;;;;;;;;;5024562;28;20042;-90
2024/01/12 05:01:34;;;;;;;40.27;16.67;;;;;;;;;;5025206;28;20014;-91
2024/01/12 05:03:59;;;;;;;40.63;15.70;;;;;;;;;;5025910;28;20036;-90
2024/01/12 05:06:25;;;;;;;39.88;15.10;;;;;;;;;;5022850;28;20026;-91
2024/01/12 05:08:50;;;;;;;39.00;15.40;;;;;;;;;;5025591;28;20041;-91
2024/01/12 05:11:15;;;;;;;43.67;16.00;;;;;;;;;;5027350;28;20026;-90
2024/01/12 05:13:40;;;;;;;44.07;15.73;;;;;;;;;;5029872;28;20021;-90
2024/01/12 05:16:06;;;;;;;45.87;16.97;;;;;;;;;;5028438;28;20034;-90
2024/01/12 05:18:31;;;;;;;35.50;14.40;;;;;;;;;;5029350;28;20049;-91
2024/01/12 05:20:57;;;;;;;42.53;17.03;;;;;;;;;;5027456;28;20044;-90
2024/01/12 05:23:22;;;;;;;42.00;16.37;;;;;;;;;;5026310;28;20041;-91
2024/01/12 05:25:47;;;;;;;40.43;15.80;;;;;;;;;;5026465;28;20284;-91
2024/01/12 05:28:12;;;;;;;40.37;15.57;;;;;;;;;;5026114;28;20049;-91
2024/01/12 05:30:37;;;;;;;41.87;15.93;;;;;;;;;;5027247;28;20025;-90
2024/01/12 05:33:03;;;;;;;41.67;15.23;;;;;;;;;;5022774;28;20022;-92
2024/01/12 05:35:28;;;;;;;41.80;15.73;;;;;;;;;;5022309;28;20053;-93
2024/01/12 05:37:55;;;;;;;43.07;15.90;;;;;;;;;;5022604;28;20037;-92
2024/01/12 05:40:20;;;;;;;43.08;15.43;;;;;;;;;;5021103;28;20025;-92
2024/01/12 05:42:45;;;;;;;40.80;15.83;;;;;;;;;;5021024;28;20034;-92
2024/01/12 05:45:10;;;;;;;43.50;15.70;;;;;;;;;;5023756;28;20074;-92
2024/01/12 05:47:36;;;;;;;40.07;14.97;;;;;;;;;;5022238;28;20065;-90
2024/01/12 05:50:01;;;;;;;40.28;14.68;;;;;;;;;;5022071;28;20022;-90
2024/01/12 05:52:27;;;;;;;40.00;13.97;;;;;;;;;;5021605;28;20025;-89
2024/01/12 05:54:54;;;;;;;42.97;14.93;;;;;;;;;;5030274;28;20002;-91
2024/01/12 05:57:20;;;;;;;41.80;15.23;;;;;;;;;;5030514;28;20024;-90
2024/01/12 05:59:45;;;;;;;37.43;14.73;;;;;;;;;;5025722;28;20029;-90
2024/01/12 06:02:14;;;;;;;37.77;14.97;;;;;;;;;;5021907;28;20276;-90
2024/01/12 06:04:39;;;;;;;33.40;13.90;;;;;;;;;;5020396;28;20038;-91
2024/01/12 06:07:04;;;;;;;38.93;15.30;;;;;;;;;;5019302;28;20343;-90
2024/01/12 06:09:29;;;;;;;37.73;14.07;;;;;;;;;;5019485;28;20041;-90
2024/01/12 06:11:54;;;;;;;37.47;14.27;;;;;;;;;;5018457;28;20493;-91
2024/01/12 06:14:20;;;;;;;39.53;15.23;;;;;;;;;;5017214;28;20018;-91
2024/01/12 06:16:45;;;;;;;38.00;15.00;;;;;;;;;;5017695;28;20628;-91
2024/01/12 06:19:10;;;;;;;36.07;14.00;;;;;;;;;;5021549;28;20029;-92
2024/01/12 06:21:35;;;;;;;35.67;13.87;;;;;;;;;;5024391;28;20021;-91
2024/01/12 06:24:01;;;;;;;36.07;14.27;;;;;;;;;;5029669;28;20120;-90
2024/01/12 06:26:26;;;;;;;33.43;13.20;;;;;;;;;;5030205;28;20064;-90
2024/01/12 06:28:51;;;;;;;38.30;14.90;;;;;;;;;;5027512;28;20089;-90
2024/01/12 06:31:16;;;;;;;37.37;13.57;;;;;;;;;;5027527;28;20600;-90
2024/01/12 06:33:41;;;;;;;28.90;12.53;;;;;;;;;;5027394;28;20018;-90
2024/01/12 06:36:07;;;;;;;33.40;12.43;;;;;;;;;;5027738;28;20068;-90
2024/01/12 06:38:32;;;;;;;33.03;11.70;;;;;;;;;;5022140;28;20373;-91
2024/01/12 06:40:57;;;;;;;31.50;12.17;;;;;;;;;;5018496;28;20113;-91
2024/01/12 06:43:22;;;;;;;33.97;11.70;;;;;;;;;;5020628;28;20719;-90
2024/01/12 06:45:47;;;;;;;36.73;11.03;;;;;;;;;;5017206;28;20295;-90
2024/01/12 06:48:13;;;;;;;31.43;11.00;;;;;;;;;;5016757;28;20041;-91
2024/01/12 06:50:38;;;;;;;32.70;11.73;;;;;;;;;;5015808;28;20024;-90
2024/01/12 06:53:09;;;;;;;28.47;12.77;;;;;;;;;;5016197;28;20006;-90
2024/01/12 06:55:35;;;;;;;26.40;9.82;;;;;;;;;;5016566;28;20096;-91
2024/01/12 06:58:00;;;;;;;27.50;10.60;;;;;;;;;;5016616;28;20033;-90
2024/01/12 07:00:26;;;;;;;27.87;10.73;;;;;;;;;;5016158;28;21002;-90
2024/01/12 07:02:51;;;;;;;26.07;10.50;;;;;;;;;;5016619;28;20029;-91
2024/01/12 07:05:17;;;;;;;31.10;11.20;;;;;;;;;;5016734;28;20040;-89
2024/01/12 07:07:43;;;;;;;38.92;11.60;;;;;;;;;;5014404;28;20022;-88
2024/01/12 07:10:09;;;;;;;33.33;10.40;;;;;;;;;;5013961;28;20488;-89
2024/01/12 07:12:34;;;;;;;33.63;10.43;;;;;;;;;;5013839;28;20022;-89
2024/01/12 07:14:59;;;;;;;29.53;10.47;;;;;;;;;;5013981;28;20043;-89
2024/01/12 07:17:24;;;;;;;22.53;8.80;;;;;;;;;;5013528;28;20022;-89
2024/01/12 07:19:49;;;;;;;30.67;10.30;;;;;;;;;;5013897;28;20563;-88
2024/01/12 07:22:15;;;;;;;27.63;9.23;;;;;;;;;;5014440;28;20103;-89
2024/01/12 07:24:40;;;;;;;31.87;10.13;;;;;;;;;;5014748;28;20044;-89
2024/01/12 07:27:06;;;;;;;24.53;9.67;;;;;;;;;;5014033;28;20030;-90
2024/01/12 07:29:31;;;;;;;32.85;10.57;;;;;;;;;;5012344;28;20465;-90
2024/01/12 07:31:58;;;;;;;28.70;10.83;;;;;;;;;;5013736;28;20037;-90
2024/01/12 07:34:23;;;;;;;27.42;9.70;;;;;;;;;;5012932;28;20029;-89
2024/01/12 07:36:48;;;;;;;32.83;10.60;;;;;;;;;;5013739;28;20010;-89
2024/01/12 07:39:13;;;;;;;24.47;9.87;;;;;;;;;;5013836;28;20026;-90
2024/01/12 07:41:38;;;;;;;25.77;9.43;;;;;;;;;;5013166;28;20026;-90
2024/01/12 07:44:04;;;;;;;34.13;9.87;;;;;;;;;;5013925;28;20022;-88
2024/01/12 07:46:29;;;;;;;28.42;10.15;;;;;;;;;;5013528;28;20434;-88
2024/01/12 07:48:56;;;;;;;34.83;10.97;;;;;;;;;;5013443;28;20018;-88
2024/01/12 07:51:23;;;;;;;31.38;10.20;;;;;;;;;;5014478;28;20025;-88
2024/01/12 07:53:48;;;;;;;27.20;10.53;;;;;;;;;;5025470;28;20109;-88
2024/01/12 07:56:13;;;;;;;28.17;10.50;;;;;;;;;;5022572;28;20030;-88
2024/01/12 07:58:38;;;;;;;35.83;10.53;;;;;;;;;;5013975;28;20014;-89
2024/01/12 08:01:05;;;;;;;30.53;10.50;;;;;;;;;;5013944;28;20022;-89
2024/01/12 08:03:30;;;;;;;36.80;10.55;;;;;;;;;;5014331;28;20021;-89
2024/01/12 08:05:56;;;;;;;33.73;11.13;;;;;;;;;;5015153;28;20022;-89
2024/01/12 08:08:21;;;;;;;38.53;12.00;;;;;;;;;;5015500;28;20080;-90
2024/01/12 08:10:47;;;;;;;35.73;11.60;;;;;;;;;;5014908;28;20021;-91
2024/01/12 08:13:12;;;;;;;31.00;12.17;;;;;;;;;;5014615;28;20026;-89
2024/01/12 08:15:37;;;;;;;34.07;12.10;;;;;;;;;;5014550;28;20013;-90
2024/01/12 08:18:02;;;;;;;36.60;12.30;;;;;;;;;;5014318;28;20026;-90
2024/01/12 08:20:27;;;;;;;40.80;12.63;;;;;;;;;;5013902;28;20054;-90
2024/01/12 08:22:53;;;;;;;34.83;12.83;;;;;;;;;;5014423;28;20111;-90
2024/01/12 08:25:18;;;;;;;40.60;13.03;;;;;;;;;;5013581;28;20036;-90
2024/01/12 08:27:44;;;;;;;33.40;11.48;;;;;;;;;;5013579;28;20699;-90
2024/01/12 08:30:09;;;;;;;34.00;11.73;;;;;;;;;;5013222;28;20102;-90
2024/01/12 08:32:34;;;;;;;37.70;12.37;;;;;;;;;;5014744;28;20022;-90
2024/01/12 08:34:59;;;;;;;44.87;13.03;;;;;;;;;;5014095;28;20057;-90
2024/01/12 08:37:25;;;;;;;47.00;13.00;;;;;;;;;;5014350;28;20525;-90
2024/01/12 08:39:51;;;;;;;51.83;13.60;;;;;;;;;;5014197;28;20112;-89
2024/01/12 08:42:16;;;;;;;41.03;13.15;;;;;;;;;;5014080;28;20107;-90
2024/01/12 08:44:42;;;;;;;39.63;13.70;;;;;;;;;;5014046;28;20470;-90
2024/01/12 08:47:07;;;;;;;41.27;12.53;;;;;;;;;;5015863;28;20077;-90
2024/01/12 08:49:33;;;;;;;45.77;11.83;;;;;;;;;;5014754;28;20481;-90
2024/01/12 08:51:58;;;;;;;42.00;11.70;;;;;;;;;;5015387;28;20024;-89
2024/01/12 08:54:23;;;;;;;37.53;12.10;;;;;;;;;;5017217;28;20096;-90
2024/01/12 08:56:48;;;;;;;38.30;12.10;;;;;;;;;;5013736;28;20030;-91
2024/01/12 08:59:13;;;;;;;32.70;11.90;;;;;;;;;;5013599;28;20029;-90
2024/01/12 09:01:39;;;;;;;34.00;11.43;;;;;;;;;;5012965;28;20033;-90
2024/01/12 09:04:04;;;;;;;29.23;11.00;;;;;;;;;;5013678;28;20088;-90
2024/01/12 09:06:29;;;;;;;35.85;11.38;;;;;;;;;;5013200;28;20076;-90
2024/01/12 09:08:55;;;;;;;32.23;11.67;;;;;;;;;;5012819;28;20022;-90
2024/01/12 09:11:20;;;;;;;34.23;10.73;;;;;;;;;;5012530;28;20018;-90
2024/01/12 09:13:45;;;;;;;36.23;11.20;;;;;;;;;;5012517;28;20100;-90
2024/01/12 09:16:10;;;;;;;26.80;11.13;;;;;;;;;;5012730;28;20028;-90
2024/01/12 09:18:36;;;;;;;29.50;10.00;;;;;;;;;;5011891;28;20026;-90
2024/01/12 09:21:01;;;;;;;23.60;9.53;;;;;;;;;;5012413;28;20049;-89
2024/01/12 09:23:26;;;;;;;19.47;8.63;;;;;;;;;;5012423;28;20045;-91
2024/01/12 09:25:53;;;;;;;26.67;9.70;;;;;;;;;;5012177;28;20481;-90
2024/01/12 09:28:18;;;;;;;25.00;10.10;;;;;;;;;;5011971;28;20075;-90
2024/01/12 09:30:46;;;;;;;26.45;10.35;;;;;;;;;;5012267;28;20119;-90
2024/01/12 09:33:11;;;;;;;26.15;9.73;;;;;;;;;;5014428;28;20018;-90
2024/01/12 09:35:36;;;;;;;29.30;9.77;;;;;;;;;;5012696;28;20669;-90
2024/01/12 09:38:01;;;;;;;26.03;9.50;;;;;;;;;;5011847;28;20022;-90
2024/01/12 09:40:26;;;;;;;30.90;9.27;;;;;;;;;;5012073;28;20124;-89
2024/01/12 09:42:55;;;;;;;27.47;9.63;;;;;;;;;;5011860;28;20034;-90
2024/01/12 09:45:21;;;;;;;25.33;9.48;;;;;;;;;;5012431;28;20036;-90
2024/01/12 09:47:47;;;;;;;27.45;9.15;;;;;;;;;;5021444;28;20057;-90
2024/01/12 09:50:12;;;;;;;27.60;9.53;;;;;;;;;;5014567;28;20018;-90
2024/01/12 09:52:38;;;;;;;23.50;9.30;;;;;;;;;;5019079;28;20081;-90
2024/01/12 09:55:04;;;;;;;28.90;9.60;;;;;;;;;;5027538;28;20014;-89
2024/01/12 09:57:29;;;;;;;27.15;9.93;;;;;;;;;;5013134;28;20029;-90
2024/01/12 09:59:55;;;;;;;27.07;10.17;;;;;;;;;;5012372;28;20028;-89
2024/01/12 10:02:20;;;;;;;26.02;8.98;;;;;;;;;;5014211;28;20018;-90
2024/01/12 10:04:45;;;;;;;22.03;9.47;;;;;;;;;;5012536;28;20014;-89
2024/01/12 10:07:10;;;;;;;29.80;9.27;;;;;;;;;;5013413;28;20033;-90
2024/01/12 10:09:35;;;;;;;30.83;9.57;;;;;;;;;;5013018;28;20021;-89
2024/01/12 10:12:01;;;;;;;21.97;9.47;;;;;;;;;;5012178;28;20050;-90
2024/01/12 10:14:26;;;;;;;22.70;9.03;;;;;;;;;;5011770;28;20029;-90
2024/01/12 10:16:54;;;;;;;24.10;8.77;;;;;;;;;;5011263;28;20068;-89
2024/01/12 10:19:20;;;;;;;25.45;9.55;;;;;;;;;;5012625;28;20018;-90
2024/01/12 10:21:45;;;;;;;19.10;8.90;;;;;;;;;;5011079;28;20022;-89
2024/01/12 10:24:15;;;;;;;28.03;9.03;;;;;;;;;;5012117;28;20029;-90
2024/01/12 10:26:40;;;;;;;24.70;8.68;;;;;;;;;;5013247;28;20070;-90
2024/01/12 10:29:05;;;;;;;28.40;9.30;;;;;;;;;;5013458;28;20628;-89
2024/01/12 10:31:30;;;;;;;26.73;9.43;;;;;;;;;;5012904;28;20125;-89
2024/01/12 10:33:59;;;;;;;25.10;8.50;;;;;;;;;;5014520;28;20029;-89
2024/01/12 10:36:26;;;;;;;30.15;9.57;;;;;;;;;;5013112;28;20022;-89
2024/01/12 10:38:52;;;;;;;19.50;8.95;;;;;;;;;;5010280;28;20327;-89
2024/01/12 10:41:23;;;;;;;32.53;8.57;;;;;;;;;;5011079;28;20029;-89
2024/01/12 10:43:50;;;;;;;22.33;8.40;;;;;;;;;;5012081;28;20025;-89
2024/01/12 10:46:21;;;;;;;29.98;8.23;;;;;;;;;;5012036;28;20041;-90
2024/01/12 10:48:53;;;;;;;25.50;8.00;;;;;;;;;;5011999;28;20478;-89
2024/01/12 10:51:21;;;;;;;25.48;8.75;;;;;;;;;;5012016;28;20037;-89
2024/01/12 10:53:52;;;;;;;26.23;8.63;;;;;;;;;;5012235;28;20033;-89
2024/01/12 10:56:17;;;;;;;24.30;8.00;;;;;;;;;;5012854;28;20611;-88
2024/01/12 10:58:44;;;;;;;18.87;7.93;;;;;;;;;;5012753;28;20299;-90
2024/01/12 11:01:10;;;;;;;22.57;7.53;;;;;;;;;;5012202;28;20022;-89
2024/01/12 11:03:35;;;;;;;23.33;8.17;;;;;;;;;;5015434;28;20323;-89
2024/01/12 11:06:01;;;;;;;22.43;7.67;;;;;;;;;;5016682;28;20026;-89
2024/01/12 11:08:27;;;;;;;17.93;7.40;;;;;;;;;;5015610;28;20022;-89
2024/01/12 11:10:56;;;;;;;19.77;7.80;;;;;;;;;;5014828;28;20022;-89
2024/01/12 11:13:22;;;;;;;31.63;8.18;;;;;;;;;;5018707;28;20025;-88
2024/01/12 11:15:50;;;;;;;20.25;8.32;;;;;;;;;;5014928;28;20550;-89
2024/01/12 11:18:16;;;;;;;19.03;7.93;;;;;;;;;;5018808;28;20030;-89
2024/01/12 11:20:43;;;;;;;18.90;7.50;;;;;;;;;;5023233;28;20269;-90
2024/01/12 11:23:09;;;;;;;26.00;8.68;;;;;;;;;;5018150;28;20022;-90
2024/01/12 11:25:34;;;;;;;20.53;7.70;;;;;;;;;;5022860;28;20024;-89
2024/01/12 11:28:01;;;;;;;20.80;8.30;;;;;;;;;;5023089;28;20035;-89
2024/01/12 11:30:26;;;;;;;20.75;7.22;;;;;;;;;;5021312;28;20493;-89
2024/01/12 11:33:01;;;;;;;27.50;7.83;;;;;;;;;;5023635;28;20105;-88
2024/01/12 11:35:29;;;;;;;17.27;7.20;;;;;;;;;;5023327;28;20025;-89
2024/01/12 11:38:02;;;;;;;24.60;8.20;;;;;;;;;;5021357;28;20026;-88
2024/01/12 11:40:28;;;;;;;18.42;7.90;;;;;;;;;;5019948;28;20014;-88
2024/01/12 11:42:53;;;;;;;19.70;7.05;;;;;;;;;;5022072;28;20036;-90
2024/01/12 11:45:18;;;;;;;22.10;7.47;;;;;;;;;;5021217;28;20076;-89
2024/01/12 11:47:44;;;;;;;27.90;7.70;;;;;;;;;;5019916;28;20018;-88
2024/01/12 11:50:12;;;;;;;22.80;7.75;;;;;;;;;;5019594;28;20026;-88
2024/01/12 11:52:37;;;;;;;24.00;7.83;;;;;;;;;;5020232;28;20018;-88
2024/01/12 11:55:04;;;;;;;19.67;7.63;;;;;;;;;;5021520;28;20050;-88
2024/01/12 11:57:29;;;;;;;23.00;8.05;;;;;;;;;;5020236;28;20323;-88
2024/01/12 11:59:57;;;;;;;24.20;8.20;;;;;;;;;;5018884;28;20098;-89
2024/01/12 12:02:23;;;;;;;20.90;7.67;;;;;;;;;;5021049;28;20018;-89
2024/01/12 12:04:48;;;;;;;23.08;8.02;;;;;;;;;;5016777;28;20106;-88
2024/01/12 12:07:14;;;;;;;25.43;8.13;;;;;;;;;;5016950;28;20033;-89
2024/01/12 12:09:40;;;;;;;24.08;9.05;;;;;;;;;;5017719;28;20425;-89
2024/01/12 12:12:08;;;;;;;17.20;8.67;;;;;;;;;;5014664;28;20028;-89
2024/01/12 12:14:33;;;;;;;23.75;8.70;;;;;;;;;;5015099;28;20308;-89
2024/01/12 12:16:58;;;;;;;20.17;8.23;;;;;;;;;;5016448;28;20527;-89
2024/01/12 12:19:24;;;;;;;19.93;9.40;;;;;;;;;;5015257;28;20014;-89
2024/01/12 12:21:49;;;;;;;26.83;9.90;;;;;;;;;;5016410;28;20465;-87
2024/01/12 12:24:15;;;;;;;27.47;9.17;;;;;;;;;;5016774;28;20010;-89
2024/01/12 12:26:41;;;;;;;23.43;8.73;;;;;;;;;;5016021;28;20029;-89
2024/01/12 12:29:06;;;;;;;25.65;9.07;;;;;;;;;;5016579;28;20248;-88
2024/01/12 12:31:32;;;;;;;28.33;9.50;;;;;;;;;;5016062;28;20101;-89
2024/01/12 12:33:57;;;;;;;25.73;9.17;;;;;;;;;;5015804;28;20010;-89
2024/01/12 12:36:23;;;;;;;23.80;8.43;;;;;;;;;;5015087;28;20114;-89
2024/01/12 12:38:48;;;;;;;27.37;8.57;;;;;;;;;;5016348;28;20030;-88
2024/01/12 12:41:13;;;;;;;17.63;7.60;;;;;;;;;;5017071;28;20049;-90
2024/01/12 12:43:40;;;;;;;26.87;8.13;;;;;;;;;;5016679;28;20022;-89
2024/01/12 12:46:05;;;;;;;23.23;8.20;;;;;;;;;;5016609;28;20291;-89
2024/01/12 12:48:31;;;;;;;26.37;8.90;;;;;;;;;;5018493;28;20362;-89
2024/01/12 12:50:56;;;;;;;21.87;8.73;;;;;;;;;;5018552;28;20352;-89
2024/01/12 12:53:22;;;;;;;21.13;8.27;;;;;;;;;;5017630;28;20045;-89
2024/01/12 12:55:47;;;;;;;26.97;8.27;;;;;;;;;;5018687;28;20010;-89
2024/01/12 12:58:13;;;;;;;27.73;8.40;;;;;;;;;;5016149;28;20033;-90
2024/01/12 13:00:38;;;;;;;19.10;8.10;;;;;;;;;;5016070;28;20068;-90
2024/01/12 13:03:04;;;;;;;20.17;7.57;;;;;;;;;;5014058;28;20022;-89
2024/01/12 13:05:29;;;;;;;23.77;7.57;;;;;;;;;;5015695;28;20022;-89
2024/01/12 13:07:55;;;;;;;24.47;8.23;;;;;;;;;;5020848;28;20048;-89
2024/01/12 13:10:21;;;;;;;24.02;7.95;;;;;;;;;;5019005;28;20030;-89
2024/01/12 13:12:46;;;;;;;23.43;8.30;;;;;;;;;;5019329;28;20105;-90
2024/01/12 13:15:11;;;;;;;28.10;8.80;;;;;;;;;;5015595;28;20014;-89
2024/01/12 13:17:36;;;;;;;30.03;8.97;;;;;;;;;;5013465;28;20061;-89
2024/01/12 13:20:03;;;;;;;23.07;8.63;;;;;;;;;;5013744;28;20022;-90
2024/01/12 13:22:28;;;;;;;24.67;7.40;;;;;;;;;;5014813;28;20424;-89
2024/01/12 13:24:54;;;;;;;20.13;7.73;;;;;;;;;;5014743;28;20049;-89
2024/01/12 13:27:19;;;;;;;21.37;8.77;;;;;;;;;;5013432;28;20030;-89
2024/01/12 13:29:44;;;;;;;24.20;7.87;;;;;;;;;;5014158;28;20021;-89
2024/01/12 13:32:10;;;;;;;20.37;7.93;;;;;;;;;;5014204;28;20381;-90
2024/01/12 13:34:36;;;;;;;17.70;8.07;;;;;;;;;;5014732;28;20018;-89
2024/01/12 13:37:02;;;;;;;22.63;8.73;;;;;;;;;;5012107;28;20032;-90
2024/01/12 13:39:27;;;;;;;22.23;7.43;;;;;;;;;;5015360;28;20538;-89
2024/01/12 13:41:52;;;;;;;19.90;7.70;;;;;;;;;;5014723;28;20025;-90
2024/01/12 13:44:18;;;;;;;20.97;7.60;;;;;;;;;;5015990;28;20100;-90
2024/01/12 13:46:43;;;;;;;24.90;7.27;;;;;;;;;;5013482;28;20025;-89
2024/01/12 13:49:08;;;;;;;20.07;7.80;;;;;;;;;;5014999;28;20093;-89
2024/01/12 13:51:34;;;;;;;26.97;7.73;;;;;;;;;;5016175;28;20060;-89
2024/01/12 13:54:03;;;;;;;19.27;7.63;;;;;;;;;;5021710;28;20029;-89
2024/01/12 13:56:28;;;;;;;23.83;7.80;;;;;;;;;;5029487;28;20326;-90
2024/01/12 13:58:57;;;;;;;22.13;7.00;;;;;;;;;;5016452;28;20006;-89
2024/01/12 14:01:22;;;;;;;19.00;7.30;;;;;;;;;;5014907;28;20644;-89
2024/01/12 14:03:47;;;;;;;24.33;8.30;;;;;;;;;;5015440;28;20041;-90
2024/01/12 14:06:13;;;;;;;17.30;7.70;;;;;;;;;;5014376;28;20807;-90
2024/01/12 14:08:38;;;;;;;18.03;7.27;;;;;;;;;;5012932;28;20028;-90
2024/01/12 14:11:04;;;;;;;25.33;7.20;;;;;;;;;;5013721;28;20018;-89